Time;durP1;ratioP1;P1;durP2;ratioP2;P2;SDS_P1;SDS_P2;PMS_P1;PMS_P2;Temp;Humidity;BMP_temperature;BMP_pressure;BME280_temperature;BME280_humidity;BME280_pressure;Samples;Min_cycle;Max_cycle;Signal;HPM_P1;HPM_P2
2024/03/16 00:02:07;;;;;;;10.23;9.23;;;13.20;96.70;;;;;;4918190;29;20055;-70
2024/03/16 00:04:35;;;;;;;10.73;9.65;;;13.20;96.70;;;;;;4899662;29;20496;-70
2024/03/16 00:07:04;;;;;;;10.10;8.90;;;13.20;96.70;;;;;;4936684;29;20054;-70
2024/03/16 00:09:32;;;;;;;9.55;8.55;;;13.20;96.70;;;;;;4927535;29;20075;-71
2024/03/16 00:12:00;;;;;;;10.07;9.07;;;13.10;96.70;;;;;;4917129;29;20134;-70
2024/03/16 00:14:29;;;;;;;10.90;9.73;;;13.10;96.70;;;;;;4917140;29;20484;-70
2024/03/16 00:16:57;;;;;;;10.18;9.15;;;13.20;96.70;;;;;;4918962;29;20039;-71
2024/03/16 00:19:26;;;;;;;10.25;9.23;;;13.10;96.70;;;;;;4932513;29;20059;-71
2024/03/16 00:21:54;;;;;;;10.00;9.00;;;13.10;96.70;;;;;;4948902;29;20044;-71
2024/03/16 00:24:24;;;;;;;10.05;9.05;;;13.10;96.70;;;;;;4915629;29;20058;-71
2024/03/16 00:26:52;;;;;;;9.88;8.50;;;13.10;96.70;;;;;;4902265;29;20055;-69
2024/03/16 00:29:21;;;;;;;9.48;8.55;;;13.20;96.70;;;;;;4932213;29;20588;-70
2024/03/16 00:31:51;;;;;;;10.45;9.02;;;13.10;96.70;;;;;;4932825;29;20138;-71
2024/03/16 00:34:20;;;;;;;8.80;7.90;;;13.10;96.70;;;;;;4932281;29;20623;-70
2024/03/16 00:36:49;;;;;;;9.50;8.27;;;13.10;96.70;;;;;;4932158;29;20062;-71
2024/03/16 00:39:23;;;;;;;9.23;8.15;;;13.10;96.70;;;;;;4931745;29;20051;-71
2024/03/16 00:41:53;;;;;;;9.43;8.43;;;13.10;96.70;;;;;;4931920;29;20051;-70
2024/03/16 00:44:22;;;;;;;8.75;7.80;;;13.10;96.70;;;;;;4932312;29;20139;-71
2024/03/16 00:46:50;;;;;;;9.20;8.15;;;13.10;96.70;;;;;;4931748;29;20101;-71
2024/03/16 00:49:19;;;;;;;9.13;8.15;;;13.10;96.70;;;;;;4916212;29;20058;-71
2024/03/16 00:51:50;;;;;;;9.30;8.25;;;13.10;96.70;;;;;;4916895;29;20051;-70
2024/03/16 00:54:18;;;;;;;9.63;8.63;;;13.10;96.70;;;;;;4931733;29;20058;-71
2024/03/16 00:56:47;;;;;;;9.20;7.82;;;13.10;96.70;;;;;;4948227;29;20170;-70
2024/03/16 00:59:16;;;;;;;8.25;7.43;;;13.10;96.70;;;;;;4915653;29;20140;-71
2024/03/16 01:01:44;;;;;;;8.65;7.80;;;13.10;96.70;;;;;;4902035;29;20059;-70
2024/03/16 01:04:16;;;;;;;8.77;7.88;;;13.10;96.70;;;;;;4916642;29;20078;-71
2024/03/16 01:06:44;;;;;;;9.63;8.07;;;13.10;96.70;;;;;;4932985;28;20106;-70
2024/03/16 01:09:16;;;;;;;9.30;7.80;;;13.10;96.70;;;;;;4931339;29;20047;-70
2024/03/16 01:11:44;;;;;;;9.43;8.40;;;13.10;96.70;;;;;;4948005;29;20123;-70
2024/03/16 01:14:15;;;;;;;9.68;7.47;;;13.10;96.70;;;;;;4944838;29;20106;-71
2024/03/16 01:16:43;;;;;;;8.75;7.85;;;13.10;96.70;;;;;;4921784;29;20441;-71
2024/03/16 01:19:12;;;;;;;7.85;7.05;;;13.10;96.70;;;;;;4909153;29;20063;-70
2024/03/16 01:21:41;;;;;;;9.13;8.20;;;13.10;96.70;;;;;;4929620;29;20114;-71
2024/03/16 01:24:09;;;;;;;9.98;8.98;;;13.10;96.70;;;;;;4944466;29;20055;-71
2024/03/16 01:26:39;;;;;;;9.15;7.93;;;13.10;96.70;;;;;;4947181;29;20390;-71
2024/03/16 01:29:10;;;;;;;9.15;8.25;;;13.10;96.70;;;;;;4929706;29;20138;-70
2024/03/16 01:31:38;;;;;;;8.90;7.63;;;13.10;96.70;;;;;;4947615;29;20066;-71
2024/03/16 01:34:07;;;;;;;9.50;8.50;;;13.10;96.70;;;;;;4931075;29;20512;-70
2024/03/16 01:36:36;;;;;;;9.27;7.38;;;13.10;96.70;;;;;;4913517;29;20057;-70
2024/03/16 01:39:05;;;;;;;8.68;7.82;;;13.10;96.70;;;;;;4927324;29;20065;-70
2024/03/16 01:41:34;;;;;;;8.18;7.38;;;13.10;96.70;;;;;;4940876;29;20058;-71
2024/03/16 01:44:09;;;;;;;8.60;7.57;;;13.10;96.70;;;;;;4926805;29;20620;-71
2024/03/16 01:46:41;;;;;;;7.63;6.82;;;13.10;96.70;;;;;;4945802;29;20769;-69
2024/03/16 01:49:10;;;;;;;9.68;7.40;;;13.10;96.70;;;;;;4900419;29;20066;-71
2024/03/16 01:51:38;;;;;;;8.18;7.38;;;13.10;96.70;;;;;;4937323;29;20099;-71
2024/03/16 01:54:10;;;;;;;9.27;8.38;;;13.00;96.70;;;;;;4899112;29;20054;-70
2024/03/16 01:56:40;;;;;;;9.07;8.18;;;13.00;96.70;;;;;;4928650;29;20080;-70
2024/03/16 01:59:08;;;;;;;7.60;6.80;;;13.00;96.70;;;;;;4926028;29;20048;-70
2024/03/16 02:01:37;;;;;;;8.35;7.43;;;13.00;96.70;;;;;;4898301;29;20504;-70
2024/03/16 02:04:06;;;;;;;8.45;7.65;;;13.00;96.70;;;;;;4930825;29;20452;-70
2024/03/16 02:06:34;;;;;;;10.05;8.25;;;13.00;96.70;;;;;;4945203;28;20050;-71
2024/03/16 02:09:04;;;;;;;9.00;8.10;;;13.00;96.70;;;;;;4930799;29;20557;-71
2024/03/16 02:11:32;;;;;;;8.63;7.72;;;13.00;96.70;;;;;;4928342;29;20051;-70
2024/03/16 02:14:01;;;;;;;8.55;7.65;;;13.00;96.70;;;;;;4927483;29;20047;-70
2024/03/16 02:16:30;;;;;;;8.40;7.60;;;13.00;96.70;;;;;;4929282;29;20047;-70
2024/03/16 02:18:58;;;;;;;8.75;7.88;;;13.10;96.70;;;;;;4929737;29;20050;-70
2024/03/16 02:21:28;;;;;;;8.10;7.30;;;13.10;96.70;;;;;;4929822;29;20130;-70
2024/03/16 02:23:57;;;;;;;8.07;7.28;;;13.00;96.70;;;;;;4909873;29;20052;-71
2024/03/16 02:26:26;;;;;;;9.68;7.93;;;13.00;96.70;;;;;;4928403;29;20051;-70
2024/03/16 02:28:56;;;;;;;12.35;8.20;;;13.10;96.70;;;;;;4924001;29;20052;-70
2024/03/16 02:31:24;;;;;;;8.80;7.90;;;13.10;96.70;;;;;;4884147;29;20153;-71
2024/03/16 02:33:53;;;;;;;8.75;7.85;;;13.00;96.70;;;;;;4929961;29;20065;-71
2024/03/16 02:36:23;;;;;;;9.82;8.13;;;13.00;96.70;;;;;;4929970;29;20055;-71
2024/03/16 02:38:52;;;;;;;9.65;8.32;;;13.00;96.70;;;;;;4929388;29;20142;-70
2024/03/16 02:41:22;;;;;;;8.88;7.97;;;13.00;96.70;;;;;;4924803;29;20138;-71
2024/03/16 02:43:50;;;;;;;10.27;8.82;;;13.10;96.70;;;;;;4896327;29;20684;-70
2024/03/16 02:46:18;;;;;;;10.43;9.32;;;13.10;96.70;;;;;;4914463;29;20047;-70
2024/03/16 02:48:48;;;;;;;11.70;8.73;;;13.10;96.70;;;;;;4945979;29;20501;-70
2024/03/16 02:51:17;;;;;;;10.38;9.30;;;13.10;96.70;;;;;;4930699;28;20047;-71
2024/03/16 02:53:45;;;;;;;10.30;9.25;;;13.00;96.70;;;;;;4900538;29;20054;-72
2024/03/16 02:56:13;;;;;;;9.68;8.68;;;13.00;96.70;;;;;;4901253;29;20051;-70
2024/03/16 02:58:45;;;;;;;10.95;9.20;;;13.00;96.70;;;;;;4922953;29;20063;-70
2024/03/16 03:01:13;;;;;;;10.93;9.80;;;13.00;96.70;;;;;;4929460;29;20059;-70
2024/03/16 03:03:42;;;;;;;11.00;9.65;;;13.00;96.70;;;;;;4930191;29;20050;-71
2024/03/16 03:06:12;;;;;;;9.98;8.80;;;13.00;96.70;;;;;;4914445;29;20078;-70
2024/03/16 03:08:40;;;;;;;10.90;9.63;;;13.00;96.70;;;;;;4930128;29;20064;-70
2024/03/16 03:11:09;;;;;;;10.20;8.77;;;13.00;96.70;;;;;;4925767;29;20087;-70
2024/03/16 03:13:40;;;;;;;10.50;9.10;;;13.00;96.70;;;;;;4913867;29;20105;-70
2024/03/16 03:16:08;;;;;;;10.18;9.07;;;13.00;96.70;;;;;;4926750;29;20054;-70
2024/03/16 03:18:37;;;;;;;11.23;9.60;;;13.00;96.70;;;;;;4930665;29;20059;-70
2024/03/16 03:21:06;;;;;;;10.50;9.40;;;13.00;96.70;;;;;;4943999;29;20070;-70
2024/03/16 03:23:34;;;;;;;10.55;9.45;;;13.00;96.70;;;;;;4899270;29;20059;-71
2024/03/16 03:26:05;;;;;;;10.52;9.43;;;13.00;96.70;;;;;;4928539;29;20236;-69
2024/03/16 03:28:35;;;;;;;10.88;9.65;;;13.00;96.70;;;;;;4929935;28;20106;-71
2024/03/16 03:31:04;;;;;;;11.20;10.00;;;13.00;96.70;;;;;;4902598;29;20547;-70
2024/03/16 03:33:33;;;;;;;11.30;9.98;;;13.00;96.70;;;;;;4948633;29;20054;-71
2024/03/16 03:36:03;;;;;;;12.00;10.25;;;13.00;96.70;;;;;;4928818;29;20504;-71
2024/03/16 03:38:32;;;;;;;9.82;8.82;;;13.00;96.70;;;;;;4934011;29;20043;-70
2024/03/16 03:41:00;;;;;;;11.05;9.48;;;13.10;96.70;;;;;;4933768;29;20055;-71
2024/03/16 03:43:30;;;;;;;11.88;10.07;;;13.00;96.70;;;;;;4945585;29;20071;-71
2024/03/16 03:46:00;;;;;;;10.65;9.30;;;13.00;96.70;;;;;;4943456;29;20122;-70
2024/03/16 03:48:41;;;;;;;10.57;9.23;;;13.00;96.70;;;;;;4945932;28;20074;-71
2024/03/16 03:51:10;;;;;;;11.02;9.18;;;13.10;96.70;;;;;;4927232;29;20142;-70
2024/03/16 03:53:38;;;;;;;9.82;8.75;;;13.00;96.70;;;;;;4924860;29;20043;-70
2024/03/16 03:56:06;;;;;;;9.85;8.77;;;13.00;96.70;;;;;;4948982;29;20059;-70
2024/03/16 03:58:37;;;;;;;9.13;8.23;;;13.00;96.70;;;;;;4932652;29;20608;-70
2024/03/16 04:01:05;;;;;;;9.32;8.30;;;13.00;96.70;;;;;;4931368;29;20066;-71
2024/03/16 04:03:33;;;;;;;8.98;8.07;;;13.00;96.70;;;;;;4932936;29;20062;-70
2024/03/16 04:06:02;;;;;;;9.23;8.32;;;13.10;96.70;;;;;;4931153;29;20110;-70
2024/03/16 04:08:31;;;;;;;8.35;7.45;;;13.00;96.70;;;;;;4934500;29;20047;-71
2024/03/16 04:11:04;;;;;;;9.30;8.30;;;13.00;96.70;;;;;;4948629;28;20047;-71
2024/03/16 04:13:33;;;;;;;9.38;7.57;;;13.00;96.70;;;;;;4931746;29;20047;-71
2024/03/16 04:16:03;;;;;;;8.55;7.65;;;13.00;96.70;;;;;;4917206;29;20050;-71
2024/03/16 04:18:32;;;;;;;8.85;7.97;;;13.00;96.70;;;;;;4930884;29;20563;-70
2024/03/16 04:21:02;;;;;;;9.70;8.70;;;13.10;96.70;;;;;;4916591;29;20082;-71
2024/03/16 04:23:34;;;;;;;9.32;7.97;;;13.10;96.70;;;;;;4916464;29;20517;-71
2024/03/16 04:26:03;;;;;;;9.73;8.40;;;13.10;96.70;;;;;;4916668;29;20055;-71
2024/03/16 04:28:31;;;;;;;10.90;8.57;;;13.10;96.70;;;;;;4913911;29;20051;-71
2024/03/16 04:30:59;;;;;;;8.98;8.07;;;13.10;96.70;;;;;;4927423;29;20051;-71
2024/03/16 04:33:28;;;;;;;10.23;9.15;;;13.10;96.70;;;;;;4936676;29;20053;-71
2024/03/16 04:35:56;;;;;;;10.13;8.88;;;13.10;96.70;;;;;;4932622;29;20063;-71
2024/03/16 04:38:25;;;;;;;10.40;8.55;;;13.10;96.70;;;;;;4931006;29;20047;-71
2024/03/16 04:40:56;;;;;;;11.38;9.20;;;13.10;96.70;;;;;;4911469;29;20106;-71
2024/03/16 04:43:28;;;;;;;9.60;8.13;;;13.10;96.70;;;;;;4915233;29;20075;-70
2024/03/16 04:45:58;;;;;;;9.95;8.95;;;13.10;96.70;;;;;;4886170;29;20055;-70
2024/03/16 04:48:26;;;;;;;8.82;7.53;;;13.10;96.70;;;;;;4913574;29;20094;-70
2024/03/16 04:50:56;;;;;;;10.55;7.30;;;13.00;96.70;;;;;;4931389;29;20552;-70
2024/03/16 04:53:24;;;;;;;8.63;7.68;;;13.00;96.70;;;;;;4916881;29;20399;-70
2024/03/16 04:55:55;;;;;;;8.85;7.25;;;13.00;96.70;;;;;;4916533;29;20341;-70
2024/03/16 04:58:25;;;;;;;8.02;7.03;;;13.10;96.70;;;;;;4932161;29;20059;-70
2024/03/16 05:00:53;;;;;;;7.53;6.63;;;13.10;96.70;;;;;;4932677;29;20542;-70
2024/03/16 05:03:22;;;;;;;6.47;5.88;;;13.10;96.70;;;;;;4915960;29;20055;-71
2024/03/16 05:05:51;;;;;;;6.70;5.90;;;13.10;96.70;;;;;;4931994;29;20047;-69
2024/03/16 05:08:19;;;;;;;6.47;5.28;;;13.10;96.70;;;;;;4929333;29;20465;-70
2024/03/16 05:10:52;;;;;;;6.88;5.97;;;13.10;96.70;;;;;;4916091;29;20139;-70
2024/03/16 05:13:22;;;;;;;6.30;5.38;;;13.10;96.70;;;;;;4931403;29;20051;-70
2024/03/16 05:15:50;;;;;;;6.65;5.32;;;13.10;96.70;;;;;;4884882;29;20129;-71
2024/03/16 05:18:19;;;;;;;6.95;5.55;;;13.20;96.70;;;;;;4931585;29;20059;-71
2024/03/16 05:20:51;;;;;;;7.13;6.40;;;13.20;96.70;;;;;;4917428;29;20592;-71
2024/03/16 05:23:19;;;;;;;8.82;7.30;;;13.10;96.70;;;;;;4915041;29;20792;-70
2024/03/16 05:25:48;;;;;;;8.73;7.35;;;13.10;96.70;;;;;;4916257;29;20587;-70
2024/03/16 05:28:16;;;;;;;9.27;8.27;;;13.10;96.70;;;;;;4914713;29;20055;-71
2024/03/16 05:30:46;;;;;;;10.85;7.80;;;13.00;96.70;;;;;;4930791;29;20073;-71
2024/03/16 05:33:17;;;;;;;9.70;7.88;;;13.00;96.70;;;;;;4931514;29;20560;-71
2024/03/16 05:35:46;;;;;;;9.60;8.38;;;13.00;96.70;;;;;;4932304;29;20513;-71
2024/03/16 05:38:15;;;;;;;9.07;8.18;;;13.00;96.70;;;;;;4915704;29;20691;-71
2024/03/16 05:40:46;;;;;;;8.18;7.38;;;13.00;96.70;;;;;;4930024;29;20043;-70
2024/03/16 05:43:14;;;;;;;8.80;7.60;;;13.00;96.70;;;;;;4932021;29;20062;-70
2024/03/16 05:45:43;;;;;;;8.38;6.50;;;13.00;96.70;;;;;;4911431;29;20056;-71
2024/03/16 05:48:14;;;;;;;7.95;7.15;;;13.10;96.70;;;;;;4911333;29;20087;-71
2024/03/16 05:50:43;;;;;;;7.75;6.95;;;13.10;96.70;;;;;;4916458;29;20146;-71
2024/03/16 05:53:12;;;;;;;9.38;7.18;;;13.10;96.70;;;;;;4934076;29;20052;-70
2024/03/16 05:55:41;;;;;;;8.50;6.75;;;13.10;96.70;;;;;;4930413;29;20635;-71
2024/03/16 05:58:11;;;;;;;8.18;7.38;;;13.10;96.70;;;;;;4930329;29;20063;-70
2024/03/16 06:00:39;;;;;;;9.00;7.57;;;13.10;96.70;;;;;;4946996;29;20528;-70
2024/03/16 06:03:08;;;;;;;8.43;7.53;;;13.10;96.70;;;;;;4915465;29;20047;-71
2024/03/16 06:05:38;;;;;;;8.25;7.15;;;13.10;96.70;;;;;;4914989;29;20554;-71
2024/03/16 06:08:10;;;;;;;9.10;7.43;;;13.10;96.70;;;;;;4931669;29;20047;-71
2024/03/16 06:10:39;;;;;;;8.13;7.28;;;13.10;96.70;;;;;;4924295;29;20051;-70
2024/03/16 06:13:10;;;;;;;8.48;7.63;;;13.10;96.70;;;;;;4930075;29;20428;-71
2024/03/16 06:15:39;;;;;;;9.32;7.35;;;13.10;96.70;;;;;;4927577;29;20054;-70
2024/03/16 06:18:09;;;;;;;10.30;7.53;;;13.10;96.70;;;;;;4928030;29;20043;-70
2024/03/16 06:20:38;;;;;;;11.35;8.45;;;13.10;96.70;;;;;;4922900;29;20062;-70
2024/03/16 06:23:08;;;;;;;9.25;7.47;;;13.10;96.70;;;;;;4945088;29;20635;-71
2024/03/16 06:25:50;;;;;;;8.90;8.00;;;13.10;96.70;;;;;;4927321;29;20043;-71
2024/03/16 06:28:21;;;;;;;10.43;8.32;;;13.10;96.70;;;;;;4929330;29;20059;-71
2024/03/16 06:31:07;;;;;;;9.55;8.55;;;13.10;96.70;;;;;;4924910;29;20081;-71
2024/03/16 06:33:36;;;;;;;8.70;7.80;;;13.10;96.70;;;;;;4929969;29;20043;-70
2024/03/16 06:36:05;;;;;;;9.55;7.40;;;13.20;96.70;;;;;;4943925;29;20052;-70
2024/03/16 06:38:34;;;;;;;11.25;8.90;;;13.20;96.70;;;;;;4914541;29;20047;-71
2024/03/16 06:41:03;;;;;;;9.13;7.47;;;13.20;96.70;;;;;;4930696;29;20154;-70
2024/03/16 06:43:32;;;;;;;10.35;8.30;;;13.20;96.70;;;;;;4930147;29;20054;-70
2024/03/16 06:46:00;;;;;;;8.70;7.75;;;13.20;96.70;;;;;;4899920;29;20047;-71
2024/03/16 06:48:29;;;;;;;8.00;7.03;;;13.20;96.70;;;;;;4915233;29;20058;-70
2024/03/16 06:50:57;;;;;;;7.72;6.90;;;13.30;96.70;;;;;;4930418;29;20083;-70
2024/03/16 06:53:28;;;;;;;9.13;7.57;;;13.30;96.70;;;;;;4939133;29;20069;-71
2024/03/16 06:55:57;;;;;;;9.05;8.02;;;13.30;96.70;;;;;;4929440;29;20048;-70
2024/03/16 06:58:26;;;;;;;7.40;6.65;;;13.40;96.70;;;;;;4912498;29;20054;-71
2024/03/16 07:00:54;;;;;;;6.80;6.10;;;13.40;96.70;;;;;;4912610;29;20082;-71
2024/03/16 07:03:23;;;;;;;8.52;7.10;;;13.40;96.70;;;;;;4915138;29;20055;-70
2024/03/16 07:05:52;;;;;;;6.88;6.18;;;13.40;96.70;;;;;;4932189;29;20126;-70
2024/03/16 07:08:21;;;;;;;7.18;6.15;;;13.40;96.70;;;;;;4950468;29;20413;-70
2024/03/16 07:10:52;;;;;;;7.07;6.38;;;13.40;96.70;;;;;;4934414;29;20055;-70
2024/03/16 07:13:20;;;;;;;7.75;6.95;;;13.40;96.70;;;;;;4917025;29;20106;-70
2024/03/16 07:15:50;;;;;;;7.35;6.65;;;13.40;96.70;;;;;;4916035;29;20040;-70
2024/03/16 07:18:18;;;;;;;7.88;5.80;;;13.40;96.70;;;;;;4949162;29;20047;-70
2024/03/16 07:20:47;;;;;;;7.90;6.05;;;13.40;96.70;;;;;;4917768;29;20077;-70
2024/03/16 07:23:16;;;;;;;5.97;5.38;;;13.50;96.70;;;;;;4936754;29;20505;-71
2024/03/16 07:25:49;;;;;;;7.00;6.28;;;13.50;96.70;;;;;;4933882;29;20039;-69
2024/03/16 07:28:18;;;;;;;6.95;6.28;;;13.50;96.70;;;;;;4934546;29;20067;-70
2024/03/16 07:30:46;;;;;;;7.53;6.70;;;13.50;96.70;;;;;;4916741;29;20055;-70
2024/03/16 07:33:15;;;;;;;13.77;7.88;;;13.60;96.70;;;;;;4926489;29;20070;-70
2024/03/16 07:35:50;;;;;;;11.15;7.55;;;13.60;96.70;;;;;;4914183;29;20150;-71
2024/03/16 07:38:19;;;;;;;7.93;7.13;;;13.60;96.70;;;;;;4931836;29;20451;-69
2024/03/16 07:40:48;;;;;;;8.77;7.40;;;13.60;96.70;;;;;;4933471;29;20047;-70
2024/03/16 07:43:16;;;;;;;7.53;6.50;;;13.60;96.70;;;;;;4917717;29;20478;-69
2024/03/16 07:45:49;;;;;;;11.60;7.55;;;13.60;96.70;;;;;;4933853;29;20055;-70
2024/03/16 07:48:21;;;;;;;7.95;6.63;;;13.60;96.70;;;;;;4931947;29;20048;-69
2024/03/16 07:50:50;;;;;;;8.43;7.00;;;13.60;96.70;;;;;;4933610;29;20090;-69
2024/03/16 07:53:19;;;;;;;8.25;7.25;;;13.70;96.70;;;;;;4902035;29;20055;-69
2024/03/16 07:55:52;;;;;;;8.93;8.02;;;13.70;96.70;;;;;;4931132;29;20055;-70
2024/03/16 07:58:21;;;;;;;10.38;8.77;;;13.70;96.70;;;;;;4928282;29;20051;-70
2024/03/16 08:00:50;;;;;;;10.25;8.40;;;13.80;96.70;;;;;;4934882;29;20342;-70
2024/03/16 08:03:19;;;;;;;9.88;7.75;;;13.80;96.70;;;;;;4932890;29;20662;-70
2024/03/16 08:05:47;;;;;;;8.38;7.57;;;13.90;96.70;;;;;;4901857;29;20121;-70
2024/03/16 08:08:16;;;;;;;8.52;7.57;;;13.90;96.70;;;;;;4934502;29;20102;-69
2024/03/16 08:10:45;;;;;;;8.43;7.57;;;13.90;96.70;;;;;;4933300;29;20063;-69
2024/03/16 08:13:14;;;;;;;7.43;6.35;;;14.00;96.70;;;;;;4921452;29;20094;-69
2024/03/16 08:15:43;;;;;;;9.23;6.80;;;13.90;96.70;;;;;;4933337;29;20082;-69
2024/03/16 08:18:12;;;;;;;8.43;7.35;;;14.00;96.70;;;;;;4933142;29;20043;-69
2024/03/16 08:20:41;;;;;;;8.80;6.50;;;14.10;96.70;;;;;;4917007;29;20059;-69
2024/03/16 08:23:09;;;;;;;7.82;7.03;;;14.10;96.70;;;;;;4917079;29;20106;-69
2024/03/16 08:25:41;;;;;;;8.25;6.50;;;14.10;96.70;;;;;;4901883;29;20221;-69
2024/03/16 08:28:10;;;;;;;8.43;6.93;;;14.10;96.70;;;;;;4935379;28;20062;-70
2024/03/16 08:30:39;;;;;;;7.68;6.68;;;14.10;96.70;;;;;;4935360;28;20121;-69
2024/03/16 08:33:08;;;;;;;8.23;7.13;;;14.10;96.70;;;;;;4939148;28;20078;-69
2024/03/16 08:35:37;;;;;;;6.97;6.22;;;14.10;96.70;;;;;;4917205;29;20133;-70
2024/03/16 08:38:06;;;;;;;10.30;7.85;;;14.20;96.70;;;;;;4916730;29;20043;-70
2024/03/16 08:40:34;;;;;;;9.10;6.88;;;14.30;96.70;;;;;;4932144;29;20059;-69
2024/03/16 08:43:03;;;;;;;7.35;6.43;;;14.30;96.70;;;;;;4932901;29;20073;-71
2024/03/16 08:45:32;;;;;;;7.68;6.88;;;14.40;96.70;;;;;;4933050;28;20181;-70
2024/03/16 08:48:01;;;;;;;7.68;6.88;;;14.50;96.70;;;;;;4922878;28;20134;-71
2024/03/16 08:50:29;;;;;;;9.35;6.82;;;14.50;96.70;;;;;;4939919;28;20416;-71
2024/03/16 08:53:00;;;;;;;10.68;7.35;;;14.60;96.70;;;;;;4936473;29;20541;-69
2024/03/16 08:55:28;;;;;;;8.65;7.05;;;14.70;96.70;;;;;;4932467;29;20151;-70
2024/03/16 08:57:59;;;;;;;7.90;7.10;;;14.70;96.70;;;;;;4932122;29;20531;-70
2024/03/16 09:00:28;;;;;;;6.50;5.90;;;14.70;96.70;;;;;;4933081;29;20162;-70
2024/03/16 09:02:59;;;;;;;16.63;13.90;;;14.80;96.70;;;;;;4918393;29;20114;-70
2024/03/16 09:05:28;;;;;;;11.02;9.15;;;14.80;96.70;;;;;;4937479;29;20059;-71
2024/03/16 09:07:57;;;;;;;8.85;6.80;;;14.90;96.70;;;;;;4917010;29;20058;-71
2024/03/16 09:10:25;;;;;;;7.53;5.78;;;15.00;96.70;;;;;;4934461;28;20054;-71
2024/03/16 09:12:54;;;;;;;7.93;6.13;;;15.10;96.70;;;;;;4936900;28;20045;-70
2024/03/16 09:15:24;;;;;;;5.57;4.90;;;15.20;96.70;;;;;;4930654;29;20059;-70
2024/03/16 09:17:54;;;;;;;6.32;5.20;;;15.30;96.70;;;;;;4929566;29;20053;-71
2024/03/16 09:20:24;;;;;;;8.57;5.10;;;15.50;96.70;;;;;;4932988;29;20055;-70
2024/03/16 09:22:55;;;;;;;6.53;4.30;;;15.60;96.70;;;;;;4949569;28;20051;-71
2024/03/16 09:25:24;;;;;;;6.10;4.28;;;15.70;96.70;;;;;;4926532;29;20051;-71
2024/03/16 09:27:52;;;;;;;8.40;6.60;;;15.80;96.70;;;;;;4908395;28;20054;-70
2024/03/16 09:30:21;;;;;;;8.93;5.53;;;15.80;96.70;;;;;;4930292;29;20163;-70
2024/03/16 09:32:50;;;;;;;6.68;4.28;;;15.90;96.70;;;;;;4914054;29;20043;-70
2024/03/16 09:35:18;;;;;;;6.78;4.40;;;16.00;96.70;;;;;;4926729;29;20051;-70
2024/03/16 09:37:49;;;;;;;5.00;4.22;;;16.00;96.70;;;;;;4922721;29;20139;-70
2024/03/16 09:40:18;;;;;;;5.53;4.35;;;16.00;96.70;;;;;;4925743;28;20083;-70
2024/03/16 09:42:47;;;;;;;7.47;4.50;;;15.90;96.70;;;;;;4933591;29;20059;-70
2024/03/16 09:45:17;;;;;;;5.95;4.70;;;15.70;96.70;;;;;;4918646;28;20053;-71
2024/03/16 09:47:45;;;;;;;6.15;4.50;;;15.60;96.70;;;;;;4874317;28;20046;-70
2024/03/16 09:50:13;;;;;;;7.35;4.32;;;15.50;96.70;;;;;;4908476;28;20146;-70
2024/03/16 09:52:40;;;;;;;5.53;4.28;;;15.50;96.70;;;;;;4933884;29;20069;-70
2024/03/16 09:55:09;;;;;;;6.97;4.55;;;15.50;96.70;;;;;;4932988;29;20070;-71
2024/03/16 09:57:40;;;;;;;7.43;4.93;;;15.50;96.70;;;;;;4898283;29;20039;-70
2024/03/16 10:00:09;;;;;;;6.47;4.50;;;15.50;96.70;;;;;;4931179;29;20043;-70
2024/03/16 10:02:41;;;;;;;8.18;4.05;;;15.50;96.70;;;;;;4900185;29;20058;-70
2024/03/16 10:05:11;;;;;;;7.32;4.72;;;15.50;96.70;;;;;;4931478;29;20147;-69
2024/03/16 10:07:38;;;;;;;6.20;4.95;;;15.50;96.70;;;;;;4931108;29;20170;-71
2024/03/16 10:10:10;;;;;;;9.60;8.25;;;15.50;96.70;;;;;;4930949;29;20453;-70
2024/03/16 10:12:43;;;;;;;8.25;6.38;;;15.50;96.70;;;;;;4915071;29;20051;-70
2024/03/16 10:15:22;;;;;;;7.78;6.45;;;15.50;96.70;;;;;;4915391;29;20055;-70
2024/03/16 10:17:50;;;;;;;9.25;7.60;;;15.50;96.70;;;;;;4930451;29;20118;-70
2024/03/16 10:20:18;;;;;;;9.55;8.05;;;15.50;96.70;;;;;;4900175;29;20106;-70
2024/03/16 10:22:51;;;;;;;11.00;8.65;;;15.60;96.70;;;;;;4929179;29;20137;-70
2024/03/16 10:25:18;;;;;;;8.82;7.93;;;15.70;96.70;;;;;;4899515;29;20061;-71
2024/03/16 10:27:45;;;;;;;10.15;8.30;;;15.70;96.70;;;;;;4914940;29;20055;-68
2024/03/16 10:30:13;;;;;;;10.60;8.07;;;15.60;96.70;;;;;;4913947;29;20055;-68
2024/03/16 10:32:44;;;;;;;11.70;7.95;;;15.60;96.70;;;;;;4899178;29;20133;-67
2024/03/16 10:35:14;;;;;;;8.88;7.10;;;15.60;96.70;;;;;;4930823;29;20051;-68
2024/03/16 10:37:42;;;;;;;7.68;6.85;;;15.50;96.70;;;;;;4914314;28;20548;-67
2024/03/16 10:40:13;;;;;;;9.38;6.43;;;15.50;96.70;;;;;;4891437;29;20055;-68
2024/03/16 10:42:43;;;;;;;8.30;6.20;;;15.50;96.70;;;;;;4931370;29;20051;-67
2024/03/16 10:45:14;;;;;;;7.53;5.50;;;15.50;96.70;;;;;;4899381;29;20125;-68
2024/03/16 10:47:44;;;;;;;7.32;5.80;;;15.50;96.70;;;;;;4945779;29;20051;-68
2024/03/16 10:50:11;;;;;;;10.13;5.47;;;15.50;96.70;;;;;;4914377;29;20039;-68
2024/03/16 10:52:40;;;;;;;10.27;8.05;;;15.50;96.70;;;;;;4934647;28;20070;-68
2024/03/16 10:55:09;;;;;;;7.32;5.88;;;15.50;96.70;;;;;;4918374;29;20496;-74
2024/03/16 10:57:36;;;;;;;8.00;5.85;;;15.50;96.70;;;;;;4900103;29;20047;-73
2024/03/16 11:00:23;;;;;;;7.65;5.68;;;15.60;96.70;;;;;;4915363;29;20539;-82
2024/03/16 11:03:09;;;;;;;8.27;5.95;;;15.60;96.70;;;;;;4904600;29;20055;-70
2024/03/16 11:05:54;;;;;;;6.28;5.32;;;15.60;96.70;;;;;;4935869;28;20512;-68
2024/03/16 11:08:23;;;;;;;8.60;4.82;;;15.70;96.70;;;;;;4947886;28;20590;-69
2024/03/16 11:10:52;;;;;;;7.13;4.72;;;15.70;96.70;;;;;;4917194;28;20059;-69
2024/03/16 11:13:20;;;;;;;6.43;5.00;;;15.80;96.70;;;;;;4919527;28;20111;-69
2024/03/16 11:15:47;;;;;;;6.85;4.38;;;15.90;96.70;;;;;;4920468;28;20520;-69
2024/03/16 11:18:43;;;;;;;7.10;4.28;;;16.00;96.70;;;;;;4901870;28;20102;-70
2024/03/16 11:21:15;;;;;;;7.07;5.50;;;16.20;96.70;;;;;;4928569;29;20055;-69
2024/03/16 11:23:43;;;;;;;7.63;5.10;;;16.40;96.70;;;;;;4912062;28;20464;-70
2024/03/16 11:26:38;;;;;;;8.00;5.70;;;16.50;96.70;;;;;;4937631;28;20043;-70
2024/03/16 11:29:09;;;;;;;8.77;6.43;;;16.60;96.70;;;;;;4917319;29;20050;-70
2024/03/16 11:31:40;;;;;;;11.55;6.93;;;16.80;96.70;;;;;;4919129;29;20047;-70
2024/03/16 11:34:11;;;;;;;6.47;5.85;;;17.00;96.70;;;;;;4902279;28;20402;-71
2024/03/16 11:36:41;;;;;;;6.88;5.25;;;17.00;96.70;;;;;;4910173;29;20046;-71
2024/03/16 11:39:14;;;;;;;9.65;5.25;;;17.10;96.70;;;;;;4907182;29;20344;-70
2024/03/16 11:41:44;;;;;;;5.78;4.50;;;17.20;96.70;;;;;;4900660;29;20462;-70
2024/03/16 11:44:15;;;;;;;8.52;4.90;;;17.20;96.70;;;;;;4933815;28;20058;-70
2024/03/16 11:46:44;;;;;;;7.10;5.15;;;17.10;96.70;;;;;;4905345;28;20500;-70
2024/03/16 11:49:11;;;;;;;5.47;4.57;;;17.30;96.70;;;;;;4933481;28;20047;-70
2024/03/16 11:51:41;;;;;;;6.28;4.88;;;17.40;96.70;;;;;;4938903;29;20154;-70
2024/03/16 11:54:10;;;;;;;6.30;4.47;;;17.40;96.70;;;;;;4957108;28;20424;-70
2024/03/16 11:56:38;;;;;;;6.03;5.28;;;17.50;96.70;;;;;;4928838;28;20463;-71
2024/03/16 11:59:05;;;;;;;7.28;4.75;;;17.50;96.70;;;;;;4934250;29;20499;-70
2024/03/16 12:01:33;;;;;;;6.80;4.22;;;17.50;96.70;;;;;;4917384;28;20047;-71
2024/03/16 12:04:01;;;;;;;5.15;4.30;;;17.50;96.70;;;;;;4918765;28;20051;-72
2024/03/16 12:06:29;;;;;;;7.72;4.38;;;17.50;96.70;;;;;;4903680;28;20111;-72
2024/03/16 12:08:56;;;;;;;6.40;4.10;;;17.50;96.70;;;;;;4925697;28;20046;-72
2024/03/16 12:11:25;;;;;;;6.88;4.30;;;17.60;96.70;;;;;;4907716;28;20047;-71
2024/03/16 12:14:08;;;;;;;5.35;4.05;;;17.60;96.70;;;;;;4926164;28;20418;-71
2024/03/16 12:16:37;;;;;;;6.88;3.65;;;17.60;96.70;;;;;;4920814;28;20047;-71
2024/03/16 12:19:04;;;;;;;6.88;4.10;;;17.90;96.70;;;;;;4924151;28;20050;-71
2024/03/16 12:21:31;;;;;;;5.97;4.55;;;18.10;96.70;;;;;;4938469;28;20733;-70
2024/03/16 12:23:59;;;;;;;6.85;4.80;;;18.10;96.70;;;;;;4923448;28;20051;-70
2024/03/16 12:26:29;;;;;;;6.72;4.20;;;18.20;96.70;;;;;;4941029;28;20035;-71
2024/03/16 12:29:11;;;;;;;5.32;3.17;;;18.10;96.70;;;;;;4957197;28;20070;-70
2024/03/16 12:31:39;;;;;;;6.55;2.88;;;18.00;96.70;;;;;;4923145;28;20053;-70
2024/03/16 12:34:09;;;;;;;5.30;3.03;;;17.90;96.70;;;;;;4905943;28;20051;-70
2024/03/16 12:36:36;;;;;;;3.13;1.67;;;17.70;96.70;;;;;;4921257;28;20044;-70
2024/03/16 12:39:07;;;;;;;5.72;2.58;;;17.60;96.70;;;;;;4923629;28;20039;-72
2024/03/16 12:41:39;;;;;;;4.15;2.58;;;17.70;96.70;;;;;;4923594;28;20055;-71
2024/03/16 12:44:06;;;;;;;3.42;1.63;;;18.20;96.70;;;;;;4917076;29;20592;-71
2024/03/16 12:46:34;;;;;;;4.50;1.80;;;18.40;96.70;;;;;;4931598;29;20589;-70
2024/03/16 12:49:02;;;;;;;5.13;1.77;;;18.50;96.70;;;;;;4916578;29;20055;-70
2024/03/16 12:51:32;;;;;;;4.85;1.75;;;18.50;96.70;;;;;;4912989;29;20083;-70
2024/03/16 12:53:59;;;;;;;5.05;1.52;;;18.80;96.70;;;;;;4913668;29;21447;-70
2024/03/16 12:56:26;;;;;;;7.55;1.88;;;18.80;96.70;;;;;;4899813;29;20102;-70
2024/03/16 12:58:54;;;;;;;24.52;8.57;;;18.60;96.70;;;;;;4916161;29;20062;-70